Metar z połowy godziny Komunikat METAR ze strony awiacja.imgw.pl Metar Mil EPDA METAR EPDA 271400Z 14004KT 060V210 9999 BKN047 04/01 Q0995 RMK 035 084 7/7=